Wallops Island, Virginia
Current Conditions -  °F | °C
As of 6:54 AM on Sunday 23 Nov 2014 (Local Time) from KWAL Reporting Station
Clear Clear  
Wind Chill:   Ceiling: Unl
Heat Index:   Visibility: 10mi
Dew Point: -1°   Wind: 7mph
Humidity: 73%   Direction: 220°SW
Pressure: 30.29"   Gusts: NA
Location:  37.94°N, 75.46°W
Report Text: KWAL 231154Z AUTO 22006KT 10SM CLR 04/M01 A3029 RMK AO2 SLP253 T00391006 10067 20033 53001
Loading
Personal Weather Stations






























Interactive Weather Map New forecast layout! Learn more

10-Day Weather Forecast

Advertisements
Track Severe Weather on mobile